sensor_id;sensor_type;location;lat;lon;timestamp;temperature;humidity
8947;DHT22;4508;48.790;9.028;2023-02-15T00:00:21;0.00;99.90
8947;DHT22;4508;48.790;9.028;2023-02-15T00:02:48;0.00;99.90
8947;DHT22;4508;48.790;9.028;2023-02-15T00:05:15;-0.20;99.90
8947;DHT22;4508;48.790;9.028;2023-02-15T00:07:42;0.10;99.90
8947;DHT22;4508;48.790;9.028;2023-02-15T00:10:09;0.00;99.90
8947;DHT22;4508;48.790;9.028;2023-02-15T00:12:37;-0.20;99.90
8947;DHT22;4508;48.790;9.028;2023-02-15T00:15:05;-0.10;99.90
8947;DHT22;4508;48.790;9.028;2023-02-15T00:17:32;-0.10;99.90
8947;DHT22;4508;48.790;9.028;2023-02-15T00:19:59;-0.20;99.90
8947;DHT22;4508;48.790;9.028;2023-02-15T00:22:26;-0.30;99.90
8947;DHT22;4508;48.790;9.028;2023-02-15T00:24:52;-0.20;99.90
8947;DHT22;4508;48.790;9.028;2023-02-15T00:27:19;-0.30;99.90
8947;DHT22;4508;48.790;9.028;2023-02-15T00:29:46;-0.10;99.90
8947;DHT22;4508;48.790;9.028;2023-02-15T00:32:14;-0.20;99.90
8947;DHT22;4508;48.790;9.028;2023-02-15T00:34:41;-0.10;99.90
8947;DHT22;4508;48.790;9.028;2023-02-15T00:37:08;0.10;99.90
8947;DHT22;4508;48.790;9.028;2023-02-15T00:39:35;0.00;99.90
8947;DHT22;4508;48.790;9.028;2023-02-15T00:42:02;0.00;99.90
8947;DHT22;4508;48.790;9.028;2023-02-15T00:44:28;0.10;99.90
8947;DHT22;4508;48.790;9.028;2023-02-15T00:46:55;-0.20;99.90
8947;DHT22;4508;48.790;9.028;2023-02-15T00:49:23;-0.20;99.90
8947;DHT22;4508;48.790;9.028;2023-02-15T00:51:50;-0.20;99.90
8947;DHT22;4508;48.790;9.028;2023-02-15T00:54:17;-0.10;99.90
8947;DHT22;4508;48.790;9.028;2023-02-15T00:56:46;-0.30;99.90
8947;DHT22;4508;48.790;9.028;2023-02-15T00:59:13;-0.20;99.90
8947;DHT22;4508;48.790;9.028;2023-02-15T01:01:39;-0.40;99.90
8947;DHT22;4508;48.790;9.028;2023-02-15T01:04:06;-0.20;99.90
8947;DHT22;4508;48.790;9.028;2023-02-15T01:06:34;-0.30;99.90
8947;DHT22;4508;48.790;9.028;2023-02-15T01:09:01;-0.50;99.90
8947;DHT22;4508;48.790;9.028;2023-02-15T01:11:28;-0.50;99.90
8947;DHT22;4508;48.790;9.028;2023-02-15T01:13:57;-0.60;99.90
8947;DHT22;4508;48.790;9.028;2023-02-15T01:16:25;-0.80;99.90
8947;DHT22;4508;48.790;9.028;2023-02-15T01:18:52;-0.70;99.90
8947;DHT22;4508;48.790;9.028;2023-02-15T01:21:22;-0.80;99.90
8947;DHT22;4508;48.790;9.028;2023-02-15T01:23:50;-0.90;99.90
8947;DHT22;4508;48.790;9.028;2023-02-15T01:26:17;-0.80;99.90
8947;DHT22;4508;48.790;9.028;2023-02-15T01:28:44;-0.70;99.90
8947;DHT22;4508;48.790;9.028;2023-02-15T01:31:13;-0.70;99.90
8947;DHT22;4508;48.790;9.028;2023-02-15T01:33:40;-0.50;99.90
8947;DHT22;4508;48.790;9.028;2023-02-15T01:36:07;-0.40;99.90
8947;DHT22;4508;48.790;9.028;2023-02-15T01:38:35;-0.40;99.90
8947;DHT22;4508;48.790;9.028;2023-02-15T01:41:03;-0.30;99.90
8947;DHT22;4508;48.790;9.028;2023-02-15T01:43:51;-0.20;99.90
8947;DHT22;4508;48.790;9.028;2023-02-15T01:46:20;-0.30;99.90
8947;DHT22;4508;48.790;9.028;2023-02-15T01:48:50;-0.30;99.90
8947;DHT22;4508;48.790;9.028;2023-02-15T01:51:20;-0.30;99.90
8947;DHT22;4508;48.790;9.028;2023-02-15T01:53:53;-0.40;99.90
8947;DHT22;4508;48.790;9.028;2023-02-15T01:56:25;-0.30;99.90
8947;DHT22;4508;48.790;9.028;2023-02-15T01:58:54;-0.40;99.90
8947;DHT22;4508;48.790;9.028;2023-02-15T02:01:23;-0.30;99.90
8947;DHT22;4508;48.790;9.028;2023-02-15T02:03:59;-0.40;99.90
8947;DHT22;4508;48.790;9.028;2023-02-15T02:06:28;-0.50;99.90
8947;DHT22;4508;48.790;9.028;2023-02-15T02:08:56;-0.70;99.90
8947;DHT22;4508;48.790;9.028;2023-02-15T02:11:24;-1.00;99.90
8947;DHT22;4508;48.790;9.028;2023-02-15T02:13:51;-1.20;99.90
8947;DHT22;4508;48.790;9.028;2023-02-15T02:16:23;-1.20;99.90
8947;DHT22;4508;48.790;9.028;2023-02-15T02:19:00;-1.10;99.90
8947;DHT22;4508;48.790;9.028;2023-02-15T02:22:02;-1.10;99.90
8947;DHT22;4508;48.790;9.028;2023-02-15T02:24:54;-1.10;99.90
8947;DHT22;4508;48.790;9.028;2023-02-15T02:27:30;-1.00;99.90
8947;DHT22;4508;48.790;9.028;2023-02-15T02:30:24;-0.70;99.90
8947;DHT22;4508;48.790;9.028;2023-02-15T02:36:03;-0.80;99.90
8947;DHT22;4508;48.790;9.028;2023-02-15T02:38:41;-0.80;99.90
8947;DHT22;4508;48.790;9.028;2023-02-15T02:41:14;-0.80;99.90
8947;DHT22;4508;48.790;9.028;2023-02-15T02:43:48;-1.00;99.90
8947;DHT22;4508;48.790;9.028;2023-02-15T02:46:21;-1.00;99.90
8947;DHT22;4508;48.790;9.028;2023-02-15T02:48:52;-1.20;99.90
8947;DHT22;4508;48.790;9.028;2023-02-15T02:51:19;-1.20;99.90
8947;DHT22;4508;48.790;9.028;2023-02-15T02:53:50;-1.10;99.90
8947;DHT22;4508;48.790;9.028;2023-02-15T02:56:22;-1.20;99.90
8947;DHT22;4508;48.790;9.028;2023-02-15T02:58:54;-1.00;99.90
8947;DHT22;4508;48.790;9.028;2023-02-15T03:01:25;-0.90;99.90
8947;DHT22;4508;48.790;9.028;2023-02-15T03:03:57;-1.00;99.90
8947;DHT22;4508;48.790;9.028;2023-02-15T03:06:30;-1.00;99.90
8947;DHT22;4508;48.790;9.028;2023-02-15T03:09:06;-1.10;99.90
8947;DHT22;4508;48.790;9.028;2023-02-15T03:11:33;-1.20;99.90
8947;DHT22;4508;48.790;9.028;2023-02-15T03:14:00;-1.40;99.90
8947;DHT22;4508;48.790;9.028;2023-02-15T03:16:27;-1.40;99.90
8947;DHT22;4508;48.790;9.028;2023-02-15T03:18:59;-1.40;99.90
8947;DHT22;4508;48.790;9.028;2023-02-15T03:21:32;-1.40;99.90
8947;DHT22;4508;48.790;9.028;2023-02-15T03:24:04;-1.10;99.90
8947;DHT22;4508;48.790;9.028;2023-02-15T03:26:34;-1.20;99.90
8947;DHT22;4508;48.790;9.028;2023-02-15T03:29:03;-1.20;99.90
8947;DHT22;4508;48.790;9.028;2023-02-15T03:31:34;-1.30;99.90
8947;DHT22;4508;48.790;9.028;2023-02-15T03:34:07;-1.30;99.90
8947;DHT22;4508;48.790;9.028;2023-02-15T03:36:39;-1.20;99.90
8947;DHT22;4508;48.790;9.028;2023-02-15T03:39:12;-1.30;99.90
8947;DHT22;4508;48.790;9.028;2023-02-15T03:41:46;-1.30;99.90
8947;DHT22;4508;48.790;9.028;2023-02-15T03:44:18;-1.20;99.90
8947;DHT22;4508;48.790;9.028;2023-02-15T03:46:50;-1.30;99.90
8947;DHT22;4508;48.790;9.028;2023-02-15T03:49:23;-1.30;99.90
8947;DHT22;4508;48.790;9.028;2023-02-15T03:51:53;-1.40;99.90
8947;DHT22;4508;48.790;9.028;2023-02-15T03:54:23;-1.40;99.90
8947;DHT22;4508;48.790;9.028;2023-02-15T03:57:10;-1.50;99.90
8947;DHT22;4508;48.790;9.028;2023-02-15T03:59:55;-1.50;99.90
8947;DHT22;4508;48.790;9.028;2023-02-15T04:02:47;-1.40;99.90
8947;DHT22;4508;48.790;9.028;2023-02-15T04:05:17;-1.40;99.90
8947;DHT22;4508;48.790;9.028;2023-02-15T04:07:44;-1.80;99.90
8947;DHT22;4508;48.790;9.028;2023-02-15T04:10:11;-1.80;99.90
8947;DHT22;4508;48.790;9.028;2023-02-15T04:12:56;-1.60;99.90
8947;DHT22;4508;48.790;9.028;2023-02-15T04:15:22;-1.70;99.90
8947;DHT22;4508;48.790;9.028;2023-02-15T04:18:07;-1.50;99.90
8947;DHT22;4508;48.790;9.028;2023-02-15T04:20:35;-1.90;99.90
8947;DHT22;4508;48.790;9.028;2023-02-15T04:23:19;-1.90;99.90
8947;DHT22;4508;48.790;9.028;2023-02-15T04:26:04;-1.70;99.90
8947;DHT22;4508;48.790;9.028;2023-02-15T04:28:31;-1.60;99.90
8947;DHT22;4508;48.790;9.028;2023-02-15T04:30:58;-1.50;99.90
8947;DHT22;4508;48.790;9.028;2023-02-15T04:33:24;-1.70;99.90
8947;DHT22;4508;48.790;9.028;2023-02-15T04:35:52;-1.80;99.90
8947;DHT22;4508;48.790;9.028;2023-02-15T04:38:19;-1.80;99.90
8947;DHT22;4508;48.790;9.028;2023-02-15T04:40:49;-1.50;99.90
8947;DHT22;4508;48.790;9.028;2023-02-15T04:43:16;-1.80;99.90
8947;DHT22;4508;48.790;9.028;2023-02-15T04:45:47;-1.70;99.90
8947;DHT22;4508;48.790;9.028;2023-02-15T04:48:14;-1.80;99.90
8947;DHT22;4508;48.790;9.028;2023-02-15T04:50:41;-1.70;99.90
8947;DHT22;4508;48.790;9.028;2023-02-15T04:53:09;-1.70;99.90
8947;DHT22;4508;48.790;9.028;2023-02-15T04:55:36;-1.90;99.90
8947;DHT22;4508;48.790;9.028;2023-02-15T04:58:03;-1.90;99.90
8947;DHT22;4508;48.790;9.028;2023-02-15T05:00:30;-2.00;99.90
8947;DHT22;4508;48.790;9.028;2023-02-15T05:02:56;-2.10;99.90
8947;DHT22;4508;48.790;9.028;2023-02-15T05:05:23;-2.20;99.90
8947;DHT22;4508;48.790;9.028;2023-02-15T05:07:50;-2.30;99.90
8947;DHT22;4508;48.790;9.028;2023-02-15T05:10:18;-2.30;99.90
8947;DHT22;4508;48.790;9.028;2023-02-15T05:12:44;-2.30;99.90
8947;DHT22;4508;48.790;9.028;2023-02-15T05:15:11;-2.10;99.90
8947;DHT22;4508;48.790;9.028;2023-02-15T05:17:38;-2.10;99.90
8947;DHT22;4508;48.790;9.028;2023-02-15T05:20:05;-2.20;99.90
8947;DHT22;4508;48.790;9.028;2023-02-15T05:22:32;-2.10;99.90
8947;DHT22;4508;48.790;9.028;2023-02-15T05:24:59;-2.00;99.90
8947;DHT22;4508;48.790;9.028;2023-02-15T05:27:45;-2.10;99.90
8947;DHT22;4508;48.790;9.028;2023-02-15T05:30:29;-2.10;99.90
8947;DHT22;4508;48.790;9.028;2023-02-15T05:32:55;-2.10;99.90
8947;DHT22;4508;48.790;9.028;2023-02-15T05:35:22;-2.10;99.90
8947;DHT22;4508;48.790;9.028;2023-02-15T05:37:49;-2.10;99.90
8947;DHT22;4508;48.790;9.028;2023-02-15T05:40:16;-2.20;99.90
8947;DHT22;4508;48.790;9.028;2023-02-15T05:42:42;-2.30;99.90
8947;DHT22;4508;48.790;9.028;2023-02-15T05:45:11;-2.10;99.90
8947;DHT22;4508;48.790;9.028;2023-02-15T05:47:37;-2.10;99.90
8947;DHT22;4508;48.790;9.028;2023-02-15T05:50:05;-2.10;99.90
8947;DHT22;4508;48.790;9.028;2023-02-15T05:52:32;-2.20;99.90
8947;DHT22;4508;48.790;9.028;2023-02-15T05:54:58;-2.10;99.90
8947;DHT22;4508;48.790;9.028;2023-02-15T05:57:25;-2.10;99.90
8947;DHT22;4508;48.790;9.028;2023-02-15T05:59:52;-2.30;99.90
8947;DHT22;4508;48.790;9.028;2023-02-15T06:02:20;-2.30;99.90
8947;DHT22;4508;48.790;9.028;2023-02-15T06:04:47;-2.30;99.90
8947;DHT22;4508;48.790;9.028;2023-02-15T06:07:13;-2.10;99.90
8947;DHT22;4508;48.790;9.028;2023-02-15T06:09:40;-2.10;99.90
8947;DHT22;4508;48.790;9.028;2023-02-15T06:12:07;-2.10;99.90
8947;DHT22;4508;48.790;9.028;2023-02-15T06:14:34;-2.10;99.90
8947;DHT22;4508;48.790;9.028;2023-02-15T06:17:00;-2.10;99.90
8947;DHT22;4508;48.790;9.028;2023-02-15T06:19:28;-2.30;99.90
8947;DHT22;4508;48.790;9.028;2023-02-15T06:21:55;-2.20;99.90
8947;DHT22;4508;48.790;9.028;2023-02-15T06:24:21;-2.10;99.90
8947;DHT22;4508;48.790;9.028;2023-02-15T06:26:48;-2.00;99.90
8947;DHT22;4508;48.790;9.028;2023-02-15T06:29:15;-2.00;99.90
8947;DHT22;4508;48.790;9.028;2023-02-15T06:31:42;-2.00;99.90
8947;DHT22;4508;48.790;9.028;2023-02-15T06:34:08;-2.20;99.90
8947;DHT22;4508;48.790;9.028;2023-02-15T06:39:04;-2.00;99.90
8947;DHT22;4508;48.790;9.028;2023-02-15T06:41:31;-2.00;99.90
8947;DHT22;4508;48.790;9.028;2023-02-15T06:43:58;-2.10;99.90
8947;DHT22;4508;48.790;9.028;2023-02-15T06:46:25;-2.10;99.90
8947;DHT22;4508;48.790;9.028;2023-02-15T06:48:52;-2.20;99.90
8947;DHT22;4508;48.790;9.028;2023-02-15T06:51:18;-2.40;99.90
8947;DHT22;4508;48.790;9.028;2023-02-15T06:56:14;-2.30;99.90
8947;DHT22;4508;48.790;9.028;2023-02-15T06:58:41;-2.30;99.90
8947;DHT22;4508;48.790;9.028;2023-02-15T07:01:08;-2.00;99.90
8947;DHT22;4508;48.790;9.028;2023-02-15T07:03:35;-2.00;99.90
8947;DHT22;4508;48.790;9.028;2023-02-15T07:06:03;-1.90;99.90
8947;DHT22;4508;48.790;9.028;2023-02-15T07:08:33;-1.80;99.90
8947;DHT22;4508;48.790;9.028;2023-02-15T07:11:02;-1.80;99.90
8947;DHT22;4508;48.790;9.028;2023-02-15T07:13:42;-1.80;99.90
8947;DHT22;4508;48.790;9.028;2023-02-15T07:16:09;-2.00;99.90
8947;DHT22;4508;48.790;9.028;2023-02-15T07:18:36;-1.90;99.90
8947;DHT22;4508;48.790;9.028;2023-02-15T07:21:03;-1.80;99.90
8947;DHT22;4508;48.790;9.028;2023-02-15T07:23:30;-1.70;99.90
8947;DHT22;4508;48.790;9.028;2023-02-15T07:25:57;-1.40;99.90
8947;DHT22;4508;48.790;9.028;2023-02-15T07:28:25;-0.10;99.90
8947;DHT22;4508;48.790;9.028;2023-02-15T07:33:19;3.30;99.90
8947;DHT22;4508;48.790;9.028;2023-02-15T07:35:53;4.60;99.90
8947;DHT22;4508;48.790;9.028;2023-02-15T07:38:21;4.50;99.90
8947;DHT22;4508;48.790;9.028;2023-02-15T07:40:48;5.50;99.90
8947;DHT22;4508;48.790;9.028;2023-02-15T07:43:15;6.10;99.90
8947;DHT22;4508;48.790;9.028;2023-02-15T07:45:43;6.00;99.90
8947;DHT22;4508;48.790;9.028;2023-02-15T07:48:10;6.40;99.90
8947;DHT22;4508;48.790;9.028;2023-02-15T07:50:36;7.80;99.90
8947;DHT22;4508;48.790;9.028;2023-02-15T07:53:03;8.70;99.90
8947;DHT22;4508;48.790;9.028;2023-02-15T07:55:30;8.50;99.90
8947;DHT22;4508;48.790;9.028;2023-02-15T07:57:57;9.00;99.90
8947;DHT22;4508;48.790;9.028;2023-02-15T08:00:24;8.70;99.90
8947;DHT22;4508;48.790;9.028;2023-02-15T08:02:53;8.30;99.90
8947;DHT22;4508;48.790;9.028;2023-02-15T08:05:34;9.00;99.90
8947;DHT22;4508;48.790;9.028;2023-02-15T08:08:01;8.00;99.90
8947;DHT22;4508;48.790;9.028;2023-02-15T08:10:28;8.50;99.90
8947;DHT22;4508;48.790;9.028;2023-02-15T08:13:08;8.20;99.90
8947;DHT22;4508;48.790;9.028;2023-02-15T08:15:35;8.80;99.90
8947;DHT22;4508;48.790;9.028;2023-02-15T08:18:03;9.30;99.90
8947;DHT22;4508;48.790;9.028;2023-02-15T08:20:30;9.00;99.90
8947;DHT22;4508;48.790;9.028;2023-02-15T08:22:57;9.20;99.90
8947;DHT22;4508;48.790;9.028;2023-02-15T08:25:24;9.10;99.90
8947;DHT22;4508;48.790;9.028;2023-02-15T08:27:51;9.90;99.90
8947;DHT22;4508;48.790;9.028;2023-02-15T08:30:17;11.40;99.90
8947;DHT22;4508;48.790;9.028;2023-02-15T08:32:44;11.30;99.90
8947;DHT22;4508;48.790;9.028;2023-02-15T08:35:12;10.70;99.90
8947;DHT22;4508;48.790;9.028;2023-02-15T08:37:39;10.80;99.90
8947;DHT22;4508;48.790;9.028;2023-02-15T08:40:07;10.40;99.90
8947;DHT22;4508;48.790;9.028;2023-02-15T08:42:34;9.50;99.90
8947;DHT22;4508;48.790;9.028;2023-02-15T08:45:00;9.50;99.90
8947;DHT22;4508;48.790;9.028;2023-02-15T08:47:27;10.50;99.90
8947;DHT22;4508;48.790;9.028;2023-02-15T08:49:54;12.40;99.90
8947;DHT22;4508;48.790;9.028;2023-02-15T08:52:22;12.70;99.90
8947;DHT22;4508;48.790;9.028;2023-02-15T08:54:49;11.20;99.90
8947;DHT22;4508;48.790;9.028;2023-02-15T08:57:15;10.70;99.90
8947;DHT22;4508;48.790;9.028;2023-02-15T08:59:42;13.40;99.90
8947;DHT22;4508;48.790;9.028;2023-02-15T09:02:10;14.10;99.90
8947;DHT22;4508;48.790;9.028;2023-02-15T09:04:36;14.90;99.90
8947;DHT22;4508;48.790;9.028;2023-02-15T09:07:03;15.50;99.90
8947;DHT22;4508;48.790;9.028;2023-02-15T09:09:31;15.60;99.90
8947;DHT22;4508;48.790;9.028;2023-02-15T09:11:58;15.50;99.90
8947;DHT22;4508;48.790;9.028;2023-02-15T09:14:25;14.80;99.90
8947;DHT22;4508;48.790;9.028;2023-02-15T09:16:53;15.30;99.90
8947;DHT22;4508;48.790;9.028;2023-02-15T09:19:21;16.50;99.90
8947;DHT22;4508;48.790;9.028;2023-02-15T09:21:48;15.70;99.90
8947;DHT22;4508;48.790;9.028;2023-02-15T09:24:16;13.80;99.90
8947;DHT22;4508;48.790;9.028;2023-02-15T09:26:46;13.10;99.90
8947;DHT22;4508;48.790;9.028;2023-02-15T09:29:14;12.30;99.90
8947;DHT22;4508;48.790;9.028;2023-02-15T09:36:41;12.30;99.90
8947;DHT22;4508;48.790;9.028;2023-02-15T09:39:10;14.00;99.90
8947;DHT22;4508;48.790;9.028;2023-02-15T09:54:52;14.40;99.90
8947;DHT22;4508;48.790;9.028;2023-02-15T09:57:29;14.40;99.90
8947;DHT22;4508;48.790;9.028;2023-02-15T10:00:06;16.30;99.90
8947;DHT22;4508;48.790;9.028;2023-02-15T10:02:46;16.60;99.90
8947;DHT22;4508;48.790;9.028;2023-02-15T10:05:21;16.90;99.90
8947;DHT22;4508;48.790;9.028;2023-02-15T10:08:13;16.80;99.90
8947;DHT22;4508;48.790;9.028;2023-02-15T10:10:46;16.50;99.90
8947;DHT22;4508;48.790;9.028;2023-02-15T10:13:26;16.00;99.90
8947;DHT22;4508;48.790;9.028;2023-02-15T10:16:08;15.60;99.90
8947;DHT22;4508;48.790;9.028;2023-02-15T10:18:49;14.90;99.90
8947;DHT22;4508;48.790;9.028;2023-02-15T10:21:28;15.20;99.90
8947;DHT22;4508;48.790;9.028;2023-02-15T10:24:15;17.20;99.90
8947;DHT22;4508;48.790;9.028;2023-02-15T10:26:45;17.30;99.90
8947;DHT22;4508;48.790;9.028;2023-02-15T10:29:22;17.80;99.90
8947;DHT22;4508;48.790;9.028;2023-02-15T10:31:58;18.20;99.90
8947;DHT22;4508;48.790;9.028;2023-02-15T10:34:31;17.40;99.90
8947;DHT22;4508;48.790;9.028;2023-02-15T10:37:14;16.00;99.90
8947;DHT22;4508;48.790;9.028;2023-02-15T10:39:52;15.70;99.90
8947;DHT22;4508;48.790;9.028;2023-02-15T10:42:30;15.10;99.90
8947;DHT22;4508;48.790;9.028;2023-02-15T10:45:10;16.10;99.90
8947;DHT22;4508;48.790;9.028;2023-02-15T10:47:59;16.50;99.90
8947;DHT22;4508;48.790;9.028;2023-02-15T10:50:36;16.00;99.90
8947;DHT22;4508;48.790;9.028;2023-02-15T10:53:23;14.60;99.90
8947;DHT22;4508;48.790;9.028;2023-02-15T10:55:57;13.80;99.90
8947;DHT22;4508;48.790;9.028;2023-02-15T10:58:38;15.10;99.90
8947;DHT22;4508;48.790;9.028;2023-02-15T11:01:16;14.10;99.90
8947;DHT22;4508;48.790;9.028;2023-02-15T11:07:08;15.50;99.90
8947;DHT22;4508;48.790;9.028;2023-02-15T11:09:38;14.60;99.90
8947;DHT22;4508;48.790;9.028;2023-02-15T11:12:10;14.40;99.90
8947;DHT22;4508;48.790;9.028;2023-02-15T11:14:43;14.20;99.90
8947;DHT22;4508;48.790;9.028;2023-02-15T11:17:15;13.40;99.90
8947;DHT22;4508;48.790;9.028;2023-02-15T11:19:51;13.70;99.90
8947;DHT22;4508;48.790;9.028;2023-02-15T11:22:19;13.00;99.90
8947;DHT22;4508;48.790;9.028;2023-02-15T11:24:46;13.40;99.90
8947;DHT22;4508;48.790;9.028;2023-02-15T11:27:19;13.50;99.90
8947;DHT22;4508;48.790;9.028;2023-02-15T11:29:54;13.40;99.90
8947;DHT22;4508;48.790;9.028;2023-02-15T11:32:25;13.20;99.90
8947;DHT22;4508;48.790;9.028;2023-02-15T11:34:56;13.50;99.90
8947;DHT22;4508;48.790;9.028;2023-02-15T11:37:28;13.50;99.90
8947;DHT22;4508;48.790;9.028;2023-02-15T11:39:57;12.80;99.90
8947;DHT22;4508;48.790;9.028;2023-02-15T11:42:26;12.80;99.90
8947;DHT22;4508;48.790;9.028;2023-02-15T11:44:59;14.90;99.90
8947;DHT22;4508;48.790;9.028;2023-02-15T11:47:29;15.20;99.90
8947;DHT22;4508;48.790;9.028;2023-02-15T11:49:56;13.20;99.90
8947;DHT22;4508;48.790;9.028;2023-02-15T11:52:23;13.20;99.90
8947;DHT22;4508;48.790;9.028;2023-02-15T11:54:51;12.40;99.90
8947;DHT22;4508;48.790;9.028;2023-02-15T11:57:22;13.70;99.90
8947;DHT22;4508;48.790;9.028;2023-02-15T11:59:54;12.60;99.90
8947;DHT22;4508;48.790;9.028;2023-02-15T12:02:22;12.80;99.90
8947;DHT22;4508;48.790;9.028;2023-02-15T12:04:56;13.20;99.90
8947;DHT22;4508;48.790;9.028;2023-02-15T12:07:27;13.30;99.90
8947;DHT22;4508;48.790;9.028;2023-02-15T12:09:59;12.50;99.90
8947;DHT22;4508;48.790;9.028;2023-02-15T12:12:29;12.20;99.90
8947;DHT22;4508;48.790;9.028;2023-02-15T12:14:58;11.70;99.90
8947;DHT22;4508;48.790;9.028;2023-02-15T12:17:27;11.50;99.90
8947;DHT22;4508;48.790;9.028;2023-02-15T12:19:57;11.00;99.90
8947;DHT22;4508;48.790;9.028;2023-02-15T12:22:29;11.10;99.90
8947;DHT22;4508;48.790;9.028;2023-02-15T12:50:10;11.70;99.90
8947;DHT22;4508;48.790;9.028;2023-02-15T13:07:56;11.50;99.90
8947;DHT22;4508;48.790;9.028;2023-02-15T13:10:25;11.90;99.90
8947;DHT22;4508;48.790;9.028;2023-02-15T13:12:52;12.10;99.90
8947;DHT22;4508;48.790;9.028;2023-02-15T13:15:30;11.70;99.90
8947;DHT22;4508;48.790;9.028;2023-02-15T13:17:58;11.80;99.90
8947;DHT22;4508;48.790;9.028;2023-02-15T13:20:27;11.80;99.90
8947;DHT22;4508;48.790;9.028;2023-02-15T13:38:09;12.20;99.90
8947;DHT22;4508;48.790;9.028;2023-02-15T13:40:46;12.60;99.90
8947;DHT22;4508;48.790;9.028;2023-02-15T13:43:27;11.80;99.90
8947;DHT22;4508;48.790;9.028;2023-02-15T13:46:09;11.50;99.90
8947;DHT22;4508;48.790;9.028;2023-02-15T13:48:46;11.80;99.90
8947;DHT22;4508;48.790;9.028;2023-02-15T13:51:21;12.00;99.90
8947;DHT22;4508;48.790;9.028;2023-02-15T13:56:31;11.80;99.90
8947;DHT22;4508;48.790;9.028;2023-02-15T13:59:12;12.00;99.90
8947;DHT22;4508;48.790;9.028;2023-02-15T14:01:46;11.80;99.90
8947;DHT22;4508;48.790;9.028;2023-02-15T14:04:30;12.00;99.90
8947;DHT22;4508;48.790;9.028;2023-02-15T14:07:25;12.10;99.90
8947;DHT22;4508;48.790;9.028;2023-02-15T14:10:10;11.80;99.90
8947;DHT22;4508;48.790;9.028;2023-02-15T14:12:54;11.80;99.90
8947;DHT22;4508;48.790;9.028;2023-02-15T14:15:32;11.80;99.90
8947;DHT22;4508;48.790;9.028;2023-02-15T14:18:12;11.70;99.90
8947;DHT22;4508;48.790;9.028;2023-02-15T14:20:47;11.90;99.90
8947;DHT22;4508;48.790;9.028;2023-02-15T14:23:28;11.80;99.90
8947;DHT22;4508;48.790;9.028;2023-02-15T14:26:00;12.10;99.90
8947;DHT22;4508;48.790;9.028;2023-02-15T14:28:33;12.20;99.90
8947;DHT22;4508;48.790;9.028;2023-02-15T14:31:03;11.60;99.90
8947;DHT22;4508;48.790;9.028;2023-02-15T14:33:34;11.50;99.90
8947;DHT22;4508;48.790;9.028;2023-02-15T14:36:03;11.60;99.90
8947;DHT22;4508;48.790;9.028;2023-02-15T14:38:44;11.50;99.90
8947;DHT22;4508;48.790;9.028;2023-02-15T14:41:17;11.50;99.90
8947;DHT22;4508;48.790;9.028;2023-02-15T14:43:49;11.70;99.90
8947;DHT22;4508;48.790;9.028;2023-02-15T14:46:25;11.40;99.90
8947;DHT22;4508;48.790;9.028;2023-02-15T14:48:55;11.50;99.90
8947;DHT22;4508;48.790;9.028;2023-02-15T14:51:57;11.30;99.90
8947;DHT22;4508;48.790;9.028;2023-02-15T14:54:53;11.20;99.90
8947;DHT22;4508;48.790;9.028;2023-02-15T14:57:24;11.10;99.90
8947;DHT22;4508;48.790;9.028;2023-02-15T14:59:54;11.10;99.90
8947;DHT22;4508;48.790;9.028;2023-02-15T15:02:26;10.90;99.90
8947;DHT22;4508;48.790;9.028;2023-02-15T15:05:01;10.70;99.90
8947;DHT22;4508;48.790;9.028;2023-02-15T15:07:37;10.90;99.90
8947;DHT22;4508;48.790;9.028;2023-02-15T15:10:32;10.80;99.90
8947;DHT22;4508;48.790;9.028;2023-02-15T15:13:36;10.80;99.90
8947;DHT22;4508;48.790;9.028;2023-02-15T15:16:30;10.80;99.90
8947;DHT22;4508;48.790;9.028;2023-02-15T15:18:58;11.00;99.90
8947;DHT22;4508;48.790;9.028;2023-02-15T15:21:56;11.00;99.90
8947;DHT22;4508;48.790;9.028;2023-02-15T15:24:51;10.90;99.90
8947;DHT22;4508;48.790;9.028;2023-02-15T15:27:38;10.70;99.90
8947;DHT22;4508;48.790;9.028;2023-02-15T15:33:46;10.40;99.90
8947;DHT22;4508;48.790;9.028;2023-02-15T15:42:31;10.20;99.90
8947;DHT22;4508;48.790;9.028;2023-02-15T15:45:31;9.90;99.90
8947;DHT22;4508;48.790;9.028;2023-02-15T15:48:22;9.90;99.90
8947;DHT22;4508;48.790;9.028;2023-02-15T15:50:53;9.80;99.90
8947;DHT22;4508;48.790;9.028;2023-02-15T15:53:24;9.60;99.90
8947;DHT22;4508;48.790;9.028;2023-02-15T15:55:55;9.60;99.90
8947;DHT22;4508;48.790;9.028;2023-02-15T15:58:24;9.40;99.90
8947;DHT22;4508;48.790;9.028;2023-02-15T16:00:54;9.20;99.90
8947;DHT22;4508;48.790;9.028;2023-02-15T16:03:23;9.10;99.90
8947;DHT22;4508;48.790;9.028;2023-02-15T16:05:50;9.00;99.90
8947;DHT22;4508;48.790;9.028;2023-02-15T16:08:30;8.90;99.90
8947;DHT22;4508;48.790;9.028;2023-02-15T16:10:58;8.70;99.90
8947;DHT22;4508;48.790;9.028;2023-02-15T16:13:25;8.40;99.90
8947;DHT22;4508;48.790;9.028;2023-02-15T16:15:54;8.20;99.90
8947;DHT22;4508;48.790;9.028;2023-02-15T16:18:25;8.20;99.90
8947;DHT22;4508;48.790;9.028;2023-02-15T16:20:55;8.10;99.90
8947;DHT22;4508;48.790;9.028;2023-02-15T16:23:59;7.90;99.90
8947;DHT22;4508;48.790;9.028;2023-02-15T16:26:51;7.90;99.90
8947;DHT22;4508;48.790;9.028;2023-02-15T16:29:28;7.70;99.90
8947;DHT22;4508;48.790;9.028;2023-02-15T16:32:00;7.80;99.90
8947;DHT22;4508;48.790;9.028;2023-02-15T16:34:28;7.50;99.90
8947;DHT22;4508;48.790;9.028;2023-02-15T16:37:12;7.40;99.90
8947;DHT22;4508;48.790;9.028;2023-02-15T16:39:41;7.20;99.90
8947;DHT22;4508;48.790;9.028;2023-02-15T16:42:08;7.00;99.90
8947;DHT22;4508;48.790;9.028;2023-02-15T16:44:36;7.10;99.90
8947;DHT22;4508;48.790;9.028;2023-02-15T16:47:04;7.10;99.90
8947;DHT22;4508;48.790;9.028;2023-02-15T16:49:34;7.10;99.90
8947;DHT22;4508;48.790;9.028;2023-02-15T16:52:02;7.00;99.90
8947;DHT22;4508;48.790;9.028;2023-02-15T16:54:31;7.00;99.90
8947;DHT22;4508;48.790;9.028;2023-02-15T16:56:58;7.00;99.90
8947;DHT22;4508;48.790;9.028;2023-02-15T16:59:33;6.90;99.90
8947;DHT22;4508;48.790;9.028;2023-02-15T17:02:05;6.70;99.90
8947;DHT22;4508;48.790;9.028;2023-02-15T17:04:32;6.80;99.90
8947;DHT22;4508;48.790;9.028;2023-02-15T17:07:03;6.60;99.90
8947;DHT22;4508;48.790;9.028;2023-02-15T17:09:31;6.50;99.90
8947;DHT22;4508;48.790;9.028;2023-02-15T17:11:58;6.40;99.90
8947;DHT22;4508;48.790;9.028;2023-02-15T17:14:29;6.40;99.90
8947;DHT22;4508;48.790;9.028;2023-02-15T17:17:00;6.20;99.90
8947;DHT22;4508;48.790;9.028;2023-02-15T17:19:31;6.20;99.90
8947;DHT22;4508;48.790;9.028;2023-02-15T17:21:59;6.30;99.90
8947;DHT22;4508;48.790;9.028;2023-02-15T17:24:38;6.30;99.90
8947;DHT22;4508;48.790;9.028;2023-02-15T17:27:10;6.30;99.90
8947;DHT22;4508;48.790;9.028;2023-02-15T17:29:40;6.20;99.90
8947;DHT22;4508;48.790;9.028;2023-02-15T17:32:14;6.20;99.90
8947;DHT22;4508;48.790;9.028;2023-02-15T17:34:49;6.00;99.90
8947;DHT22;4508;48.790;9.028;2023-02-15T17:37:25;6.00;99.90
8947;DHT22;4508;48.790;9.028;2023-02-15T17:39:52;6.10;99.90
8947;DHT22;4508;48.790;9.028;2023-02-15T17:42:19;6.00;99.90
8947;DHT22;4508;48.790;9.028;2023-02-15T17:44:46;6.00;99.90
8947;DHT22;4508;48.790;9.028;2023-02-15T17:47:15;6.00;99.90
8947;DHT22;4508;48.790;9.028;2023-02-15T17:49:44;5.90;99.90
8947;DHT22;4508;48.790;9.028;2023-02-15T17:52:15;5.60;99.90
8947;DHT22;4508;48.790;9.028;2023-02-15T17:54:42;5.70;99.90
8947;DHT22;4508;48.790;9.028;2023-02-15T17:57:27;5.90;99.90
8947;DHT22;4508;48.790;9.028;2023-02-15T17:59:54;5.70;99.90
8947;DHT22;4508;48.790;9.028;2023-02-15T18:02:38;5.40;99.90
8947;DHT22;4508;48.790;9.028;2023-02-15T18:05:23;5.40;99.90
8947;DHT22;4508;48.790;9.028;2023-02-15T18:08:09;5.60;99.90
8947;DHT22;4508;48.790;9.028;2023-02-15T18:10:53;5.50;99.90
8947;DHT22;4508;48.790;9.028;2023-02-15T18:13:38;5.60;99.90